Bromptonville, Canada
Current Conditions -  °F | °C
As of 9:00 PM on Saturday 25 Oct 2014 (Local Time) from CYSC Reporting Station
Light Rain Light Rain  
Wind Chill: 46°   Ceiling: 6000
Heat Index: 48°   Visibility: 9mi
Dew Point: 46°   Wind: 5mph
Humidity: 93%   Direction: 170°S
Pressure: 29.45"   Gusts: NA
Location:  45.47°N, 71.94°W
Report Text: CYSC 260100Z AUTO 17004KT 120V200 9SM -RA FEW026 BKN060 OVC077 09/08 A2945 RMK PRESFR PCPN 1.8MM PAST HR SLP979 DENSITY ALT 800FT
Loading
Personal Weather Stations






























Interactive Weather Map
Tropical Storm Tracking
New forecast layout! Learn more

10-Day Weather Forecast

Advertisements
Track Severe Weather on mobile